Time;durP1;ratioP1;P1;durP2;ratioP2;P2;SDS_P1;SDS_P2;PMS_P1;PMS_P2;Temp;Humidity;BMP_temperature;BMP_pressure;BME280_temperature;BME280_humidity;BME280_pressure;Samples;Min_cycle;Max_cycle;Signal;HPM_P1;HPM_P2
2024/03/17 00:00:04;;;;;;;3.90;3.20;;;;;;;6.61;83.27;99056.22;226745;1272;22655;-79
2024/03/17 00:05:07;;;;;;;4.80;3.60;;;;;;;6.50;83.57;99060.33;226729;1274;22544;-79
2024/03/17 00:10:11;;;;;;;3.90;3.40;;;;;;;6.38;84.35;99068.38;226660;1274;25967;-80
2024/03/17 00:15:14;;;;;;;6.10;4.10;;;;;;;6.26;84.70;99073.47;226805;1271;24281;-80
2024/03/17 00:20:19;;;;;;;5.50;3.20;;;;;;;6.15;84.49;99072.80;226911;1269;22622;-80
2024/03/17 00:25:23;;;;;;;5.00;3.10;;;;;;;6.09;84.72;99082.89;226874;1269;22549;-80
2024/03/17 00:30:25;;;;;;;4.60;3.30;;;;;;;6.07;84.57;99097.09;226931;1270;22595;-79
2024/03/17 00:35:27;;;;;;;5.30;3.20;;;;;;;6.07;84.38;99103.05;226856;1273;22565;-80
2024/03/17 00:40:29;;;;;;;5.70;3.10;;;;;;;6.07;84.08;99105.34;226655;1274;22546;-79
2024/03/17 00:45:31;;;;;;;5.60;3.00;;;;;;;6.08;83.70;99103.68;226653;1274;23381;-79
2024/03/17 00:50:33;;;;;;;5.30;3.20;;;;;;;6.08;83.29;99101.58;226701;1273;22536;-79
2024/03/17 00:55:35;;;;;;;5.10;3.10;;;;;;;6.07;82.87;99094.66;226707;1274;22553;-79
2024/03/17 01:00:37;;;;;;;6.40;2.90;;;;;;;6.06;82.72;99107.36;226833;1273;22557;-80
2024/03/17 01:05:42;;;;;;;5.10;2.70;;;;;;;6.05;82.10;99118.14;226801;1269;22566;-80
2024/03/17 01:10:49;;;;;;;7.00;3.00;;;;;;;6.04;81.84;99129.60;226863;1272;22539;-78
2024/03/17 01:15:52;;;;;;;6.90;3.10;;;;;;;6.04;81.81;99132.19;226852;1274;22538;-80
2024/03/17 01:20:54;;;;;;;5.10;3.10;;;;;;;6.02;81.93;99123.23;226950;1265;22562;-78
2024/03/17 01:25:56;;;;;;;5.60;3.30;;;;;;;5.99;82.14;99125.81;226882;1274;22593;-79
2024/03/17 01:30:58;;;;;;;6.40;3.20;;;;;;;5.98;81.79;99127.61;226708;1274;25247;-78
2024/03/17 01:36:00;;;;;;;6.80;3.70;;;;;;;5.97;81.43;99122.18;226752;1274;22772;-79
2024/03/17 01:41:04;;;;;;;7.00;3.70;;;;;;;5.94;81.46;99130.81;226676;1274;22553;-78
2024/03/17 01:46:13;;;;;;;6.20;2.70;;;;;;;5.89;81.28;99135.58;226626;1274;22572;-79
2024/03/17 01:51:15;;;;;;;5.50;2.20;;;;;;;5.80;80.85;99138.00;226683;1274;22551;-79
2024/03/17 01:56:17;;;;;;;6.00;2.70;;;;;;;5.74;80.42;99147.86;226647;1275;22547;-79
2024/03/17 02:01:19;;;;;;;5.80;2.80;;;;;;;5.67;80.20;99142.52;226676;1274;22561;-79
2024/03/17 02:06:23;;;;;;;6.20;2.90;;;;;;;5.64;80.06;99153.30;226853;1272;22552;-79
2024/03/17 02:11:30;;;;;;;5.60;2.30;;;;;;;5.61;79.56;99154.48;226820;1274;23621;-79
2024/03/17 02:16:33;;;;;;;6.80;2.50;;;;;;;5.58;79.22;99148.88;226748;1275;22556;-79
2024/03/17 02:21:35;;;;;;;11.80;2.50;;;;;;;5.53;79.19;99146.52;226844;1275;22659;-79
2024/03/17 02:26:38;;;;;;;5.70;2.20;;;;;;;5.48;79.38;99141.43;226842;1272;22545;-79
2024/03/17 02:31:40;;;;;;;6.90;2.70;;;;;;;5.41;78.93;99151.37;226682;1275;22597;-79
2024/03/17 02:36:42;;;;;;;6.50;2.10;;;;;;;5.32;79.12;99152.54;226858;1274;22543;-80
2024/03/17 02:41:45;;;;;;;5.80;2.30;;;;;;;5.20;78.77;99152.69;226285;1258;647096;-79
2024/03/17 02:46:48;;;;;;;5.90;2.00;;;;;;;5.07;78.93;99164.56;226946;1271;23674;-79
2024/03/17 02:51:50;;;;;;;6.40;2.20;;;;;;;4.92;78.70;99178.30;226767;1274;22538;-77
2024/03/17 02:56:53;;;;;;;3.50;1.90;;;;;;;4.77;78.56;99185.11;226777;1273;22553;-78
2024/03/17 03:01:55;;;;;;;6.30;1.80;;;;;;;4.64;78.55;99194.05;226649;1274;22546;-78
2024/03/17 03:06:57;;;;;;;5.10;1.90;;;;;;;4.50;78.73;99192.30;226776;1269;22542;-78
2024/03/17 03:12:00;;;;;;;5.80;1.80;;;;;;;4.39;78.44;99198.55;226700;1275;22551;-79
2024/03/17 03:17:02;;;;;;;3.90;1.80;;;;;;;4.30;78.53;99200.42;226736;1273;25315;-78
2024/03/17 03:22:05;;;;;;;4.90;2.10;;;;;;;4.21;78.69;99203.13;226649;1275;22575;-78
2024/03/17 03:27:08;;;;;;;7.40;1.80;;;;;;;4.13;79.11;99208.75;226631;1274;24246;-78
2024/03/17 03:32:10;;;;;;;9.00;2.20;;;;;;;4.06;78.83;99209.05;226647;1274;22546;-78
2024/03/17 03:37:12;;;;;;;6.60;1.90;;;;;;;3.97;79.14;99218.93;226851;1274;22550;-78
2024/03/17 03:42:14;;;;;;;6.10;2.10;;;;;;;3.86;79.10;99224.39;226618;1274;23268;-78
2024/03/17 03:47:17;;;;;;;5.00;2.30;;;;;;;3.80;79.27;99232.30;226745;1274;22544;-77
2024/03/17 03:52:19;;;;;;;5.40;1.90;;;;;;;3.74;79.46;99236.26;226651;1274;22525;-79
2024/03/17 03:57:25;;;;;;;5.80;2.10;;;;;;;3.69;79.61;99243.38;226815;1274;22544;-78
2024/03/17 04:02:31;;;;;;;4.60;2.30;;;;;;;3.64;79.74;99247.63;226857;1274;23604;-79
2024/03/17 04:07:33;;;;;;;6.30;2.40;;;;;;;3.56;79.86;99250.89;226822;1272;22557;-78
2024/03/17 04:12:36;;;;;;;5.00;2.50;;;;;;;3.47;80.18;99252.52;226899;1274;22535;-78
2024/03/17 04:17:38;;;;;;;6.10;2.30;;;;;;;3.41;80.14;99257.98;226735;1274;22548;-78
2024/03/17 04:22:44;;;;;;;7.60;2.50;;;;;;;3.35;80.43;99259.90;226889;1272;22538;-78
2024/03/17 04:27:46;;;;;;;5.40;2.20;;;;;;;3.35;80.72;99261.83;226614;1274;22657;-79
2024/03/17 04:32:49;;;;;;;8.40;2.80;;;;;;;3.38;80.82;99264.11;226827;1273;22691;-77
2024/03/17 04:37:50;;;;;;;5.70;2.40;;;;;;;3.42;80.62;99267.63;226700;1273;22572;-78
2024/03/17 04:42:52;;;;;;;6.00;2.30;;;;;;;3.41;80.66;99272.20;226878;1272;22549;-78
2024/03/17 04:47:55;;;;;;;6.30;2.50;;;;;;;3.37;80.71;99281.96;226655;1274;22546;-78
2024/03/17 04:52:56;;;;;;;5.70;3.00;;;;;;;3.35;80.81;99285.77;226798;1271;25295;-79
2024/03/17 04:57:58;;;;;;;6.10;2.90;;;;;;;3.35;80.94;99287.21;226701;1272;22553;-79
2024/03/17 05:03:00;;;;;;;7.90;3.40;;;;;;;3.32;80.85;99291.45;226751;1271;25916;-78
2024/03/17 05:08:02;;;;;;;5.70;2.70;;;;;;;3.29;80.81;99290.63;226821;1272;24246;-80
2024/03/17 05:13:07;;;;;;;7.50;3.10;;;;;;;3.26;80.76;99291.64;226893;1257;22573;-78
2024/03/17 05:18:08;;;;;;;10.80;3.20;;;;;;;3.21;80.65;99293.59;226696;1272;22542;-77
2024/03/17 05:23:11;;;;;;;9.40;3.50;;;;;;;3.17;80.56;99298.23;226677;1273;22628;-78
2024/03/17 05:28:13;;;;;;;9.50;3.80;;;;;;;3.15;80.62;99304.84;226668;1272;25412;-78
2024/03/17 05:33:15;;;;;;;7.70;3.80;;;;;;;3.14;80.70;99309.61;226795;1274;25042;-78
2024/03/17 05:38:17;;;;;;;7.80;3.90;;;;;;;3.16;80.73;99316.09;226638;1274;22538;-78
2024/03/17 05:43:19;;;;;;;12.50;4.60;;;;;;;3.23;80.59;99315.27;226832;1271;22539;-78
2024/03/17 05:48:20;;;;;;;8.70;3.40;;;;;;;3.29;80.50;99314.65;226663;1274;22543;-78
2024/03/17 05:53:24;;;;;;;8.00;3.00;;;;;;;3.38;80.06;99312.54;226812;1274;22588;-78
2024/03/17 05:58:26;;;;;;;8.20;3.40;;;;;;;3.48;80.02;99319.16;226607;1274;22541;-78
2024/03/17 06:03:28;;;;;;;8.40;3.60;;;;;;;3.57;79.52;99322.23;226634;1272;25315;-78
2024/03/17 06:08:30;;;;;;;11.90;4.70;;;;;;;3.67;79.47;99328.35;226710;1272;22548;-78
2024/03/17 06:13:32;;;;;;;8.20;3.30;;;;;;;3.81;79.31;99325.51;226802;1272;24258;-78
2024/03/17 06:18:34;;;;;;;10.80;4.10;;;;;;;4.00;78.99;99330.88;226684;1274;22528;-78
2024/03/17 06:23:36;;;;;;;10.60;3.50;;;;;;;4.16;78.58;99333.30;226608;1272;22660;-79
2024/03/17 06:28:37;;;;;;;11.60;5.10;;;;;;;4.34;78.30;99342.70;226594;1272;22530;-79
2024/03/17 06:33:39;;;;;;;9.10;3.10;;;;;;;4.49;77.99;99344.68;226649;1273;22572;-79
2024/03/17 06:38:41;;;;;;;9.20;3.80;;;;;;;4.53;77.48;99339.78;226546;1275;22598;-78
2024/03/17 06:43:44;;;;;;;7.30;3.40;;;;;;;4.64;77.73;99337.45;226853;1273;22553;-78
2024/03/17 06:48:46;;;;;;;9.80;3.10;;;;;;;4.75;77.61;99333.11;226682;1274;22642;-78
2024/03/17 06:53:48;;;;;;;7.70;2.60;;;;;;;4.80;77.31;99338.25;226810;1271;22558;-79
2024/03/17 06:58:51;;;;;;;11.30;2.70;;;;;;;4.96;77.36;99333.65;226625;1274;24281;-78
2024/03/17 07:03:54;;;;;;;4.70;2.20;;;;;;;5.20;76.92;99340.52;226727;1274;22556;-78
2024/03/17 07:08:56;;;;;;;6.10;2.00;;;;;;;5.32;75.96;99341.39;226802;1273;22534;-78
2024/03/17 07:13:58;;;;;;;12.40;2.80;;;;;;;5.41;75.57;99340.38;226663;1274;22593;-78
2024/03/17 07:19:02;;;;;;;7.80;2.10;;;;;;;5.45;75.37;99345.37;226696;1274;22537;-78
2024/03/17 07:24:04;;;;;;;7.90;2.00;;;;;;;5.52;75.43;99339.13;226757;1272;22521;-78
2024/03/17 07:29:08;;;;;;;7.80;2.00;;;;;;;5.64;74.92;99344.84;226633;1274;22555;-78
2024/03/17 07:34:10;;;;;;;7.10;2.10;;;;;;;5.71;74.46;99352.23;226651;1274;22564;-78
2024/03/17 07:39:12;;;;;;;7.10;2.10;;;;;;;5.69;73.73;99363.96;226765;1274;22543;-78
2024/03/17 07:44:14;;;;;;;7.00;1.90;;;;;;;5.70;73.03;99367.03;226746;1272;24196;-79
2024/03/17 07:49:16;;;;;;;2.90;1.50;;;;;;;5.72;72.48;99366.29;226533;1274;22629;-79
2024/03/17 07:54:19;;;;;;;5.70;1.90;;;;;;;5.81;71.36;99367.38;226613;1274;22655;-79
2024/03/17 07:59:21;;;;;;;3.80;1.60;;;;;;;5.95;71.11;99366.06;226719;1272;24257;-78
2024/03/17 08:04:23;;;;;;;4.50;1.40;;;;;;;6.06;70.69;99375.02;226689;1273;22547;-78
2024/03/17 08:09:25;;;;;;;6.60;1.80;;;;;;;6.18;69.27;99368.29;226573;1274;22552;-79
2024/03/17 08:14:28;;;;;;;6.10;1.90;;;;;;;6.16;68.41;99372.48;226635;1252;22541;-78
2024/03/17 08:19:30;;;;;;;3.70;1.60;;;;;;;6.02;67.70;99366.10;226692;1274;22540;-78
2024/03/17 08:24:33;;;;;;;3.10;1.10;;;;;;;5.99;68.00;99359.92;226673;1274;22523;-78
2024/03/17 08:29:35;;;;;;;4.90;1.60;;;;;;;6.03;67.58;99349.55;226768;1270;22712;-78
2024/03/17 08:34:37;;;;;;;3.80;1.40;;;;;;;6.14;66.38;99364.83;226717;1271;25245;-78
2024/03/17 08:39:39;;;;;;;6.50;1.80;;;;;;;6.19;66.04;99349.07;226592;1274;22482;-78
2024/03/17 08:44:42;;;;;;;6.60;1.50;;;;;;;6.32;66.17;99344.38;226571;1274;22544;-79
2024/03/17 08:49:44;;;;;;;3.90;1.20;;;;;;;6.40;66.02;99336.56;226685;1253;22545;-78
2024/03/17 08:54:46;;;;;;;4.50;1.20;;;;;;;6.57;65.60;99331.30;226694;1272;22563;-79
2024/03/17 08:59:48;;;;;;;6.70;1.30;;;;;;;6.74;65.56;99335.23;226586;1275;22635;-79
2024/03/17 09:04:50;;;;;;;4.30;1.40;;;;;;;6.84;65.28;99338.09;226496;1275;22542;-79
2024/03/17 09:09:52;;;;;;;6.50;1.40;;;;;;;6.95;64.86;99339.44;226451;1274;22550;-80
2024/03/17 09:14:55;;;;;;;4.10;1.20;;;;;;;7.07;64.21;99329.12;226728;1269;22600;-79
2024/03/17 09:19:58;;;;;;;3.70;1.20;;;;;;;7.22;64.01;99327.60;226726;1272;22542;-78
2024/03/17 09:25:00;;;;;;;3.60;1.60;;;;;;;7.32;63.34;99323.23;226713;1271;22550;-79
2024/03/17 09:30:09;;;;;;;3.20;1.20;;;;;;;7.25;62.26;99329.59;226651;1271;22560;-79
2024/03/17 09:35:11;;;;;;;4.20;1.30;;;;;;;7.22;62.86;99327.64;226725;1275;22613;-79
2024/03/17 09:40:17;;;;;;;2.30;1.00;;;;;;;7.28;63.12;99330.69;226701;1271;23793;-79
2024/03/17 09:45:19;;;;;;;3.70;1.20;;;;;;;7.49;62.42;99325.71;226717;1272;24216;-79
2024/03/17 09:50:21;;;;;;;4.60;1.20;;;;;;;7.76;61.99;99311.44;226690;1271;22547;-78
2024/03/17 09:55:24;;;;;;;4.00;1.30;;;;;;;7.97;61.73;99311.52;226700;1271;25292;-79
2024/03/17 10:00:26;;;;;;;3.90;1.10;;;;;;;8.02;61.32;99309.73;226824;1258;22543;-79
2024/03/17 10:05:28;;;;;;;3.30;1.20;;;;;;;7.98;60.44;99309.46;226706;1275;22527;-79
2024/03/17 10:10:30;;;;;;;4.00;1.00;;;;;;;8.10;62.00;99304.55;226689;1272;22557;-79
2024/03/17 10:15:32;;;;;;;6.10;1.40;;;;;;;8.11;61.42;99306.55;226591;1274;22612;-79
2024/03/17 10:20:34;;;;;;;6.10;1.20;;;;;;;8.01;60.67;99295.89;226749;1275;22574;-78
2024/03/17 10:25:39;;;;;;;3.50;1.20;;;;;;;8.05;61.63;99296.86;226743;1270;22553;-78
2024/03/17 10:30:42;;;;;;;4.80;1.30;;;;;;;8.27;61.17;99299.69;226618;1275;22565;-79
2024/03/17 10:35:44;;;;;;;5.30;1.40;;;;;;;8.39;60.39;99304.17;226686;1272;22626;-79
2024/03/17 10:40:46;;;;;;;3.10;1.20;;;;;;;8.38;60.00;99296.56;226661;1275;22547;-79
2024/03/17 10:45:48;;;;;;;4.80;1.20;;;;;;;8.36;60.19;99295.20;226589;1275;22563;-79
2024/03/17 10:50:56;;;;;;;3.40;1.10;;;;;;;8.41;60.19;99288.55;226587;1275;22557;-79
2024/03/17 10:56:06;;;;;;;4.00;1.40;;;;;;;8.44;60.02;99285.89;226762;1272;22831;-79
2024/03/17 11:01:11;;;;;;;2.70;1.20;;;;;;;8.62;60.00;99286.06;226658;1273;22530;-79
2024/03/17 11:06:14;;;;;;;4.10;1.30;;;;;;;8.85;59.80;99280.09;226671;1272;22542;-79
2024/03/17 11:11:36;;;;;;;3.70;1.20;;;;;;;9.05;59.37;99278.80;226613;1275;22533;-80
2024/03/17 11:16:39;;;;;;;4.60;1.40;;;;;;;9.34;58.86;99270.73;226686;1272;22546;-80
2024/03/17 11:21:43;;;;;;;3.60;1.30;;;;;;;9.60;58.05;99274.18;226676;1275;22541;-79
2024/03/17 11:26:45;;;;;;;4.30;1.10;;;;;;;9.72;58.37;99265.04;226606;1274;24233;-79
2024/03/17 11:31:52;;;;;;;3.60;1.10;;;;;;;9.97;57.41;99261.38;226604;1275;22547;-79
2024/03/17 11:36:56;;;;;;;4.20;1.20;;;;;;;9.94;56.25;99259.14;226749;1275;22492;-79
2024/03/17 11:42:10;;;;;;;3.80;1.00;;;;;;;9.51;55.75;99255.31;226483;1275;22543;-79
2024/03/17 11:47:12;;;;;;;3.80;1.00;;;;;;;9.31;56.58;99246.80;226662;1274;22541;-79
2024/03/17 11:52:16;;;;;;;3.20;1.00;;;;;;;9.36;57.09;99237.30;226641;1272;25960;-79
2024/03/17 11:57:24;;;;;;;4.00;1.10;;;;;;;9.39;56.01;99232.13;226756;1272;22548;-80
2024/03/17 12:02:30;;;;;;;4.80;0.90;;;;;;;9.19;55.97;99229.98;226577;1274;22543;-79
2024/03/17 12:07:31;;;;;;;6.20;1.40;;;;;;;8.91;55.96;99216.42;226592;1274;22535;-79
2024/03/17 12:12:36;;;;;;;3.50;1.30;;;;;;;8.75;56.85;99222.86;226661;1274;23154;-78
2024/03/17 12:17:38;;;;;;;4.30;1.10;;;;;;;8.68;56.96;99224.66;226674;1272;23125;-80
2024/03/17 12:22:42;;;;;;;5.70;1.40;;;;;;;8.69;56.97;99217.92;226701;1272;25415;-80
2024/03/17 12:27:46;;;;;;;1.90;0.90;;;;;;;8.74;56.72;99212.42;226734;1273;22889;-80
2024/03/17 12:32:50;;;;;;;3.70;1.40;;;;;;;8.67;56.62;99208.27;226667;1272;22579;-80
2024/03/17 12:37:52;;;;;;;4.70;1.60;;;;;;;8.72;56.75;99197.44;226620;1274;22549;-80
2024/03/17 12:42:54;;;;;;;2.70;1.80;;;;;;;8.89;57.26;99198.04;226475;1274;22528;-79
2024/03/17 12:47:56;;;;;;;4.20;1.40;;;;;;;8.99;58.00;99196.22;226584;1270;22570;-79
2024/03/17 12:52:59;;;;;;;5.10;1.70;;;;;;;9.01;56.89;99185.12;226689;1274;24856;-79
2024/03/17 13:03:36;;;;;;;5.00;1.50;;;;;;;8.88;56.21;99182.10;226710;1272;22553;-79
2024/03/17 13:08:39;;;;;;;4.40;1.60;;;;;;;8.79;56.75;99172.36;226747;1273;22800;-79
2024/03/17 13:13:41;;;;;;;3.80;1.90;;;;;;;8.76;56.69;99170.65;226745;1274;22556;-79
2024/03/17 13:18:43;;;;;;;4.40;1.80;;;;;;;8.72;56.82;99175.32;226638;1272;22589;-80
2024/03/17 13:23:45;;;;;;;3.90;1.50;;;;;;;8.68;56.76;99181.17;226639;1274;22494;-78
2024/03/17 13:28:50;;;;;;;4.30;1.60;;;;;;;8.55;56.81;99174.45;226761;1272;22610;-79
2024/03/17 13:33:52;;;;;;;4.70;1.70;;;;;;;8.28;56.71;99182.27;226651;1275;22687;-79
2024/03/17 13:38:54;;;;;;;4.00;1.80;;;;;;;8.12;57.59;99165.90;226722;1273;25247;-79
2024/03/17 13:43:57;;;;;;;4.40;1.50;;;;;;;8.06;57.75;99163.88;226495;1275;23792;-79
2024/03/17 13:49:08;;;;;;;3.40;1.60;;;;;;;8.11;57.76;99163.52;226695;1273;22596;-79
2024/03/17 13:54:10;;;;;;;5.50;1.60;;;;;;;8.16;57.91;99160.27;226719;1256;24263;-79
2024/03/17 13:59:12;;;;;;;4.40;1.90;;;;;;;8.21;57.73;99157.20;226801;1275;22818;-79
2024/03/17 14:04:17;;;;;;;6.00;2.10;;;;;;;8.33;58.50;99156.16;226739;1275;22557;-78
2024/03/17 14:09:19;;;;;;;4.70;2.10;;;;;;;8.36;57.95;99148.42;226780;1272;22973;-80
2024/03/17 14:14:20;;;;;;;4.10;1.70;;;;;;;8.31;58.41;99150.67;226650;1275;22548;-78
2024/03/17 14:19:22;;;;;;;3.10;2.30;;;;;;;8.31;58.23;99151.14;226693;1275;22562;-79
2024/03/17 14:24:24;;;;;;;6.50;2.50;;;;;;;8.31;58.88;99142.66;226734;1273;22551;-79
2024/03/17 14:29:26;;;;;;;5.40;2.10;;;;;;;8.30;58.09;99153.28;226832;1274;22567;-79
2024/03/17 14:34:34;;;;;;;5.20;2.60;;;;;;;8.17;57.67;99152.77;226649;1275;22556;-79
2024/03/17 14:39:37;;;;;;;3.60;2.10;;;;;;;8.05;57.59;99149.96;226651;1271;22958;-80
2024/03/17 14:44:38;;;;;;;4.00;1.50;;;;;;;7.91;57.59;99147.27;226584;1273;327324;-79
2024/03/17 14:49:41;;;;;;;3.90;1.40;;;;;;;7.95;57.73;99145.47;226720;1268;22671;-80
2024/03/17 14:54:43;;;;;;;2.60;1.50;;;;;;;8.06;57.72;99149.56;226772;1275;22562;-78
2024/03/17 14:59:45;;;;;;;4.30;1.40;;;;;;;8.05;57.22;99157.52;226723;1275;22549;-79
2024/03/17 15:04:47;;;;;;;5.70;1.60;;;;;;;7.91;56.09;99157.08;226630;1275;22540;-79
2024/03/17 15:09:49;;;;;;;3.20;1.30;;;;;;;7.82;56.29;99151.21;226815;1275;22542;-79
2024/03/17 15:14:52;;;;;;;3.60;1.30;;;;;;;7.87;56.17;99145.33;226729;1275;22574;-78
2024/03/17 15:19:54;;;;;;;5.40;1.70;;;;;;;7.82;56.34;99150.94;226664;1275;25114;-79
2024/03/17 15:24:57;;;;;;;3.00;1.30;;;;;;;7.77;56.13;99148.63;226640;1275;22634;-79
2024/03/17 15:29:59;;;;;;;2.70;1.10;;;;;;;7.78;56.55;99144.65;226707;1272;22546;-78
2024/03/17 15:35:01;;;;;;;4.50;1.40;;;;;;;7.83;57.17;99142.05;226626;1274;22551;-79
2024/03/17 15:40:04;;;;;;;3.90;1.30;;;;;;;7.83;56.36;99142.40;226951;1273;22524;-79
2024/03/17 15:45:07;;;;;;;4.30;1.10;;;;;;;7.72;55.90;99148.75;226791;1273;22555;-79
2024/03/17 15:50:09;;;;;;;4.30;1.20;;;;;;;7.61;56.48;99149.01;226676;1275;23456;-79
2024/03/17 15:55:12;;;;;;;5.60;1.40;;;;;;;7.54;56.89;99143.80;226890;1273;22552;-77
2024/03/17 16:00:15;;;;;;;5.50;2.00;;;;;;;7.46;56.48;99142.56;226757;1274;22540;-77
2024/03/17 16:05:19;;;;;;;5.60;1.40;;;;;;;7.37;56.43;99144.56;226794;1272;22533;-78
2024/03/17 16:10:22;;;;;;;6.30;1.50;;;;;;;7.29;56.94;99149.13;226658;1274;22610;-79
2024/03/17 16:15:24;;;;;;;5.50;1.50;;;;;;;7.19;56.96;99149.41;226681;1274;24270;-78
2024/03/17 16:20:47;;;;;;;5.60;1.60;;;;;;;7.08;57.39;99151.00;226657;1273;22626;-79
2024/03/17 16:25:50;;;;;;;4.10;1.50;;;;;;;6.98;58.23;99149.25;226889;1272;22542;-80
2024/03/17 16:30:56;;;;;;;5.70;1.60;;;;;;;6.85;58.02;99152.95;226607;1274;22549;-78
2024/03/17 16:35:59;;;;;;;5.40;1.60;;;;;;;6.65;58.65;99152.94;226637;1274;22544;-78
2024/03/17 16:41:02;;;;;;;6.20;1.70;;;;;;;6.49;58.83;99160.05;226826;1272;22650;-77
2024/03/17 16:46:20;;;;;;;4.90;2.00;;;;;;;6.34;59.46;99172.55;226636;1274;24337;-78
2024/03/17 16:51:22;;;;;;;7.90;1.90;;;;;;;6.18;60.08;99178.48;226799;1267;22550;-78
2024/03/17 16:56:24;;;;;;;6.60;2.10;;;;;;;6.06;60.51;99184.83;226868;1274;22541;-78
2024/03/17 17:01:26;;;;;;;8.00;2.40;;;;;;;5.96;61.07;99180.24;226650;1274;22540;-78
2024/03/17 17:06:27;;;;;;;6.30;2.30;;;;;;;5.91;61.47;99186.04;226734;1270;22548;-78
2024/03/17 17:11:30;;;;;;;6.80;2.40;;;;;;;5.85;61.72;99192.85;226691;1274;22586;-79
2024/03/17 17:16:32;;;;;;;5.50;2.20;;;;;;;5.81;62.04;99194.52;226569;1274;22544;-78
2024/03/17 17:21:35;;;;;;;8.00;2.30;;;;;;;5.75;62.05;99194.58;226697;1273;22540;-77
2024/03/17 17:26:37;;;;;;;5.50;2.30;;;;;;;5.69;62.39;99201.41;226781;1273;22546;-78
2024/03/17 17:31:39;;;;;;;7.50;2.40;;;;;;;5.64;62.41;99204.36;226779;1274;22546;-78
2024/03/17 17:36:43;;;;;;;8.80;2.70;;;;;;;5.58;62.70;99202.98;226678;1274;22562;-77
2024/03/17 17:41:46;;;;;;;9.10;2.90;;;;;;;5.52;63.05;99203.56;226856;1270;22541;-78
2024/03/17 17:46:48;;;;;;;6.50;2.80;;;;;;;5.45;63.36;99202.84;226680;1251;24230;-78
2024/03/17 17:51:51;;;;;;;6.90;2.50;;;;;;;5.38;63.74;99202.50;226756;1273;22541;-77
2024/03/17 17:56:53;;;;;;;10.70;2.60;;;;;;;5.31;63.48;99204.52;226788;1272;22570;-78
2024/03/17 18:01:55;;;;;;;6.50;2.40;;;;;;;5.27;63.68;99203.35;226802;1274;22562;-76
2024/03/17 18:06:57;;;;;;;6.20;2.70;;;;;;;5.22;64.11;99206.70;226774;1273;22953;-79
2024/03/17 18:11:59;;;;;;;7.80;2.80;;;;;;;5.18;64.20;99203.45;226792;1274;22549;-77
2024/03/17 18:17:02;;;;;;;6.60;1.90;;;;;;;5.13;64.13;99203.24;226834;1272;22559;-77
2024/03/17 18:22:04;;;;;;;3.60;2.00;;;;;;;5.11;63.82;99200.70;226845;1270;22515;-77
2024/03/17 18:27:06;;;;;;;6.90;2.00;;;;;;;5.08;63.61;99199.86;226717;1275;22908;-77
2024/03/17 18:32:08;;;;;;;5.50;2.00;;;;;;;5.04;63.56;99199.08;226817;1275;22545;-78
2024/03/17 18:37:10;;;;;;;7.20;1.90;;;;;;;4.99;63.63;99198.27;226851;1273;22540;-78
2024/03/17 18:42:12;;;;;;;6.00;1.80;;;;;;;4.95;63.72;99201.83;226825;1272;25087;-77
2024/03/17 18:47:14;;;;;;;6.40;2.50;;;;;;;4.91;63.62;99206.52;226737;1274;24255;-77
2024/03/17 18:52:16;;;;;;;4.90;1.80;;;;;;;4.88;63.72;99203.29;226749;1275;22556;-77
2024/03/17 18:57:18;;;;;;;4.20;2.00;;;;;;;4.85;63.50;99196.25;226816;1270;22608;-78
2024/03/17 19:02:20;;;;;;;6.60;2.50;;;;;;;4.82;63.57;99191.31;226569;1274;22650;-77
2024/03/17 19:07:25;;;;;;;6.60;2.10;;;;;;;4.79;63.98;99191.59;226803;1273;22690;-77
2024/03/17 19:12:28;;;;;;;4.70;1.80;;;;;;;4.77;64.00;99195.84;226893;1268;22578;-77
2024/03/17 19:17:34;;;;;;;6.10;2.40;;;;;;;4.74;64.32;99200.10;226629;1273;26040;-78
2024/03/17 19:22:40;;;;;;;6.70;2.40;;;;;;;4.70;64.23;99199.58;226785;1273;24252;-78
2024/03/17 19:27:44;;;;;;;5.70;2.20;;;;;;;4.67;64.51;99200.95;226904;1271;22548;-77
2024/03/17 19:32:46;;;;;;;6.00;2.60;;;;;;;4.64;64.92;99203.84;226793;1274;22609;-77
2024/03/17 19:37:49;;;;;;;6.20;3.00;;;;;;;4.61;64.87;99206.13;226702;1274;25479;-78
2024/03/17 19:42:51;;;;;;;7.60;2.70;;;;;;;4.60;65.25;99208.20;226811;1270;22631;-78
2024/03/17 19:47:53;;;;;;;8.30;3.50;;;;;;;4.57;65.68;99216.43;226631;1271;25425;-77
2024/03/17 19:52:55;;;;;;;6.70;3.90;;;;;;;4.52;66.11;99217.80;226899;1271;22556;-78
2024/03/17 19:57:57;;;;;;;9.80;5.00;;;;;;;4.47;66.28;99217.38;226776;1273;22760;-77
2024/03/17 20:02:59;;;;;;;10.30;4.10;;;;;;;4.42;66.55;99212.77;226639;1273;23027;-78
2024/03/17 20:08:01;;;;;;;6.70;3.60;;;;;;;4.35;66.70;99211.98;226836;1273;22630;-78
2024/03/17 20:13:05;;;;;;;8.60;3.70;;;;;;;4.29;66.24;99209.23;226828;1264;22535;-78
2024/03/17 20:18:08;;;;;;;7.30;3.40;;;;;;;4.24;66.46;99210.20;226778;1272;22541;-78
2024/03/17 20:23:16;;;;;;;8.80;3.30;;;;;;;4.18;66.54;99211.59;226679;1274;22557;-78
2024/03/17 20:28:18;;;;;;;6.40;3.30;;;;;;;4.12;66.65;99206.74;226714;1273;22549;-78
2024/03/17 20:33:20;;;;;;;5.20;3.20;;;;;;;4.09;66.66;99213.70;226686;1274;22661;-78
2024/03/17 20:38:22;;;;;;;8.00;3.50;;;;;;;4.07;66.93;99208.81;226729;1269;22557;-78
2024/03/17 20:43:24;;;;;;;7.20;3.80;;;;;;;4.05;66.87;99206.58;226740;1272;22558;-77
2024/03/17 20:48:26;;;;;;;7.70;3.80;;;;;;;4.03;66.94;99206.85;226787;1273;22526;-77
2024/03/17 20:53:28;;;;;;;6.60;3.60;;;;;;;4.02;67.02;99209.10;226833;1274;22567;-78
2024/03/17 20:58:31;;;;;;;4.30;2.80;;;;;;;3.98;66.86;99208.55;226584;1272;25375;-78
2024/03/17 21:03:33;;;;;;;4.20;2.70;;;;;;;3.93;66.38;99215.79;226672;1274;22585;-78
2024/03/17 21:08:35;;;;;;;4.40;2.60;;;;;;;3.89;66.16;99214.73;226570;1274;22541;-78
2024/03/17 21:13:37;;;;;;;4.90;2.80;;;;;;;3.85;66.28;99219.11;226620;1274;22649;-79
2024/03/17 21:18:39;;;;;;;4.80;3.10;;;;;;;3.79;66.32;99215.65;226648;1274;25915;-78
2024/03/17 21:23:40;;;;;;;6.00;3.50;;;;;;;3.73;66.42;99211.42;226691;1274;25402;-78
2024/03/17 21:28:43;;;;;;;5.40;2.90;;;;;;;3.68;66.66;99211.54;226657;1274;22556;-78
2024/03/17 21:33:47;;;;;;;5.70;3.20;;;;;;;3.65;66.88;99207.94;226648;1274;22559;-79
2024/03/17 21:38:49;;;;;;;4.50;3.00;;;;;;;3.64;67.07;99211.95;226623;1274;22534;-78
2024/03/17 21:43:51;;;;;;;4.60;3.20;;;;;;;3.61;67.11;99206.23;226751;1272;22571;-78
2024/03/17 21:48:53;;;;;;;6.60;3.50;;;;;;;3.57;67.22;99199.48;226795;1269;22584;-77
2024/03/17 21:53:55;;;;;;;5.70;3.50;;;;;;;3.54;67.34;99198.88;226873;1272;22564;-77
2024/03/17 21:58:57;;;;;;;6.20;3.40;;;;;;;3.55;67.76;99199.32;226975;1274;22570;-76
2024/03/17 22:04:00;;;;;;;6.20;3.70;;;;;;;3.55;67.92;99195.45;226648;1274;22551;-77
2024/03/17 22:09:07;;;;;;;6.70;4.20;;;;;;;3.57;67.94;99189.90;226796;1274;22598;-78
2024/03/17 22:14:10;;;;;;;4.00;3.00;;;;;;;3.56;68.17;99183.03;226921;1273;23053;-79
2024/03/17 22:19:11;;;;;;;5.70;3.60;;;;;;;3.51;67.76;99179.09;226809;1270;22559;-77
2024/03/17 22:24:14;;;;;;;5.70;3.00;;;;;;;3.46;68.00;99180.91;226826;1272;24242;-77
2024/03/17 22:29:20;;;;;;;4.90;3.10;;;;;;;3.40;67.98;99178.67;226781;1275;23608;-77
2024/03/17 22:34:22;;;;;;;5.70;3.00;;;;;;;3.35;68.10;99179.45;226803;1272;22612;-77
2024/03/17 22:39:24;;;;;;;6.10;3.40;;;;;;;3.32;68.54;99177.28;226754;1273;22551;-77
2024/03/17 22:44:26;;;;;;;3.80;2.10;;;;;;;3.28;68.34;99178.16;226843;1273;22885;-77
2024/03/17 22:49:28;;;;;;;1.90;1.40;;;;;;;3.20;67.53;99169.23;226731;1272;22552;-78
2024/03/17 22:54:30;;;;;;;1.50;0.80;;;;;;;3.14;66.88;99170.10;226845;1271;22593;-77
2024/03/17 22:59:31;;;;;;;1.10;0.80;;;;;;;3.07;66.30;99169.30;226645;1273;22548;-77
2024/03/17 23:04:34;;;;;;;1.00;0.90;;;;;;;3.00;65.95;99166.23;226826;1271;22571;-78
2024/03/17 23:09:36;;;;;;;1.70;0.80;;;;;;;2.94;65.85;99164.73;226609;1263;22568;-79
2024/03/17 23:14:38;;;;;;;2.10;0.90;;;;;;;2.89;66.15;99164.77;226882;1275;22553;-78
2024/03/17 23:19:41;;;;;;;2.20;1.20;;;;;;;2.88;66.31;99164.05;226657;1275;22538;-77
2024/03/17 23:24:43;;;;;;;2.20;1.00;;;;;;;2.84;66.34;99162.19;226828;1271;22566;-77
2024/03/17 23:29:47;;;;;;;1.50;1.20;;;;;;;2.82;66.23;99154.52;226809;1269;24801;-77
2024/03/17 23:34:49;;;;;;;1.00;0.80;;;;;;;2.80;66.21;99156.70;226864;1273;22529;-77
2024/03/17 23:39:51;;;;;;;1.40;1.00;;;;;;;2.76;66.17;99153.16;226883;1270;23194;-77
2024/03/17 23:44:53;;;;;;;1.30;0.70;;;;;;;2.74;66.21;99153.36;226724;1274;22536;-77
2024/03/17 23:49:55;;;;;;;1.60;1.00;;;;;;;2.72;66.34;99150.04;226883;1270;24279;-77